createdAt,value
2023-05-05T00:00:01.596Z,14.40
2023-05-05T00:02:03.271Z,14.30
2023-05-05T00:04:05.009Z,14.40
2023-05-05T00:06:08.025Z,14.40
2023-05-05T00:08:09.700Z,14.40
2023-05-05T00:10:11.358Z,14.30
2023-05-05T00:12:13.129Z,14.40
2023-05-05T00:14:14.809Z,14.40
2023-05-05T00:16:17.550Z,14.40
2023-05-05T00:18:19.627Z,14.20
2023-05-05T00:20:21.424Z,14.20
2023-05-05T00:22:28.988Z,14.20
2023-05-05T00:24:30.622Z,14.20
2023-05-05T00:26:32.298Z,14.20
2023-05-05T00:28:34.039Z,14.20
2023-05-05T00:30:35.983Z,14.20
2023-05-05T00:32:37.580Z,14.10
2023-05-05T00:34:39.302Z,14.20
2023-05-05T00:36:41.385Z,14.10
2023-05-05T00:38:43.088Z,14.10
2023-05-05T00:40:44.734Z,14.10
2023-05-05T00:42:47.325Z,14.10
2023-05-05T00:44:48.945Z,14.10
2023-05-05T00:46:50.777Z,14.10
2023-05-05T00:48:53.019Z,14.00
2023-05-05T00:50:54.710Z,13.90
2023-05-05T00:53:03.304Z,14.00
2023-05-05T00:55:05.887Z,14.10
2023-05-05T00:57:07.780Z,14.00
2023-05-05T00:59:09.400Z,14.00
2023-05-05T01:01:15.242Z,13.90
2023-05-05T01:03:17.146Z,13.90
2023-05-05T01:05:19.603Z,14.00
2023-05-05T01:07:26.692Z,14.00
2023-05-05T01:09:34.353Z,13.90
2023-05-05T01:11:42.112Z,13.90
2023-05-05T01:13:46.621Z,13.90
2023-05-05T01:15:50.882Z,13.90
2023-05-05T01:17:55.892Z,13.90
2023-05-05T01:20:30.171Z,13.80
2023-05-05T01:22:38.189Z,13.70
2023-05-05T01:24:42.874Z,13.70
2023-05-05T01:26:55.392Z,13.70
2023-05-05T01:28:59.770Z,13.60
2023-05-05T01:31:07.534Z,13.60
2023-05-05T01:33:12.339Z,13.60
2023-05-05T01:35:18.169Z,13.60
2023-05-05T01:37:22.995Z,13.50
2023-05-05T01:39:26.931Z,13.40
2023-05-05T01:41:32.066Z,13.40
2023-05-05T01:43:34.925Z,13.40
2023-05-05T01:45:38.764Z,13.30
2023-05-05T01:47:41.948Z,13.20
2023-05-05T01:49:45.021Z,13.20
2023-05-05T01:51:47.836Z,13.10
2023-05-05T01:53:51.959Z,13.10
2023-05-05T01:55:59.772Z,13.00
2023-05-05T01:58:12.208Z,13.00
2023-05-05T02:00:16.794Z,13.00
2023-05-05T02:02:21.508Z,12.80
2023-05-05T02:04:24.215Z,13.00
2023-05-05T02:06:26.920Z,13.00
2023-05-05T02:08:28.761Z,12.90
2023-05-05T02:10:31.061Z,12.80
2023-05-05T02:12:34.055Z,12.80
2023-05-05T02:14:36.050Z,12.90
2023-05-05T02:16:38.306Z,12.90
2023-05-05T02:18:40.395Z,13.00
2023-05-05T02:20:42.440Z,12.80
2023-05-05T02:22:44.199Z,12.80
2023-05-05T02:24:46.058Z,12.90
2023-05-05T02:26:49.109Z,12.90
2023-05-05T02:29:02.023Z,12.80
2023-05-05T02:31:06.102Z,12.80
2023-05-05T02:33:10.254Z,12.70
2023-05-05T02:35:17.095Z,12.70
2023-05-05T02:37:21.357Z,12.70
2023-05-05T02:39:29.307Z,12.60
2023-05-05T02:41:32.950Z,12.70
2023-05-05T02:43:35.934Z,12.70
2023-05-05T02:45:37.646Z,12.60
2023-05-05T02:47:40.330Z,12.70
2023-05-05T02:49:42.794Z,12.70
2023-05-05T02:51:44.406Z,12.60
2023-05-05T02:53:46.315Z,12.60
2023-05-05T02:55:52.947Z,12.50
2023-05-05T02:58:07.540Z,12.40
2023-05-05T03:00:15.247Z,12.50
2023-05-05T03:02:36.942Z,12.40
2023-05-05T03:04:39.580Z,12.30
2023-05-05T03:06:42.646Z,12.30
2023-05-05T03:08:47.655Z,12.30
2023-05-05T03:11:12.243Z,12.20
2023-05-05T03:13:17.886Z,12.30
2023-05-05T03:15:22.310Z,12.30
2023-05-05T03:17:24.934Z,12.30
2023-05-05T03:19:27.721Z,12.40
2023-05-05T03:21:30.751Z,12.40
2023-05-05T03:23:32.795Z,12.30
2023-05-05T03:25:47.965Z,12.40
2023-05-05T03:27:49.670Z,12.30
2023-05-05T03:29:51.350Z,12.30
2023-05-05T03:31:53.026Z,12.40
2023-05-05T03:33:54.670Z,12.40
2023-05-05T03:35:56.245Z,12.40
2023-05-05T03:37:57.796Z,12.50
2023-05-05T03:39:59.377Z,12.50
2023-05-05T03:42:01.018Z,12.50
2023-05-05T03:44:02.666Z,12.60
2023-05-05T03:46:04.559Z,12.60
2023-05-05T03:48:06.608Z,12.60
2023-05-05T03:50:08.849Z,12.50
2023-05-05T03:52:11.142Z,12.60
2023-05-05T03:54:14.044Z,12.50
2023-05-05T03:56:15.857Z,12.50
2023-05-05T03:58:17.539Z,12.60
2023-05-05T04:00:20.334Z,12.60
2023-05-05T04:02:21.998Z,12.60
2023-05-05T04:04:23.762Z,12.60
2023-05-05T04:06:26.317Z,12.60
2023-05-05T04:08:27.994Z,12.70
2023-05-05T04:10:29.816Z,12.60
2023-05-05T04:12:31.413Z,12.60
2023-05-05T04:14:33.038Z,12.60
2023-05-05T04:16:34.696Z,12.60
2023-05-05T04:18:36.959Z,12.60
2023-05-05T04:20:38.650Z,12.70
2023-05-05T04:22:40.296Z,12.60
2023-05-05T04:24:42.896Z,12.60
2023-05-05T04:26:44.484Z,12.60
2023-05-05T04:28:46.142Z,12.60
2023-05-05T04:30:48.763Z,12.60
2023-05-05T04:32:50.501Z,12.70
2023-05-05T04:34:52.152Z,12.80
2023-05-05T04:36:53.749Z,12.80
2023-05-05T04:38:55.455Z,12.90
2023-05-05T04:40:57.053Z,12.90
2023-05-05T04:42:58.690Z,13.10
2023-05-05T04:45:01.380Z,13.20
2023-05-05T04:47:03.227Z,13.20
2023-05-05T04:49:05.888Z,13.10
2023-05-05T04:51:09.666Z,13.10
2023-05-05T04:53:12.277Z,13.20
2023-05-05T04:55:14.974Z,13.20
2023-05-05T04:57:16.609Z,13.20
2023-05-05T04:59:18.214Z,13.30
2023-05-05T05:01:19.985Z,13.30
2023-05-05T05:03:27.853Z,13.40
2023-05-05T05:05:29.564Z,13.40
2023-05-05T05:07:31.316Z,13.40
2023-05-05T05:09:33.037Z,13.50
2023-05-05T05:11:34.700Z,13.50
2023-05-05T05:13:36.330Z,13.60
2023-05-05T05:15:41.016Z,13.60
2023-05-05T05:17:42.760Z,13.70
2023-05-05T05:19:44.397Z,13.70
2023-05-05T05:21:45.986Z,13.80
2023-05-05T05:23:47.647Z,13.80
2023-05-05T05:25:49.424Z,13.90
2023-05-05T05:28:05.743Z,14.00
2023-05-05T05:30:11.122Z,14.00
2023-05-05T05:32:13.857Z,14.10
2023-05-05T05:34:15.451Z,14.10
2023-05-05T05:36:17.063Z,14.20
2023-05-05T05:38:18.790Z,14.30
2023-05-05T05:40:20.621Z,14.30
2023-05-05T05:42:22.381Z,14.30
2023-05-05T05:44:23.976Z,14.40
2023-05-05T05:46:25.679Z,14.40
2023-05-05T05:48:28.690Z,14.40
2023-05-05T05:50:30.422Z,14.30
2023-05-05T05:52:32.373Z,14.40
2023-05-05T05:54:35.613Z,14.50
2023-05-05T05:56:37.318Z,14.50
2023-05-05T05:58:40.628Z,14.50
2023-05-05T06:00:42.374Z,14.60
2023-05-05T06:02:48.680Z,14.70
2023-05-05T06:04:50.666Z,14.90
2023-05-05T06:06:52.241Z,15.00
2023-05-05T06:08:53.896Z,15.10
2023-05-05T06:10:55.532Z,15.10
2023-05-05T06:12:57.323Z,15.20
2023-05-05T06:14:59.052Z,15.40
2023-05-05T06:17:01.686Z,15.50
2023-05-05T06:19:03.532Z,15.60
2023-05-05T06:21:05.261Z,15.80
2023-05-05T06:23:07.093Z,15.90
2023-05-05T06:25:08.879Z,16.00
2023-05-05T06:27:10.567Z,16.00
2023-05-05T06:29:12.481Z,16.00
2023-05-05T06:31:14.303Z,16.10
2023-05-05T06:33:16.734Z,16.20
2023-05-05T06:35:20.790Z,16.40
2023-05-05T06:37:22.373Z,16.40
2023-05-05T06:39:24.049Z,16.50
2023-05-05T06:41:26.752Z,16.50
2023-05-05T06:43:28.810Z,16.50
2023-05-05T06:45:31.194Z,16.60
2023-05-05T06:47:32.793Z,16.60
2023-05-05T06:49:35.486Z,16.70
2023-05-05T06:51:37.164Z,16.90
2023-05-05T06:53:38.839Z,17.00
2023-05-05T06:55:42.948Z,17.20
2023-05-05T06:57:44.573Z,17.20
2023-05-05T06:59:46.243Z,17.10
2023-05-05T07:01:48.120Z,17.20
2023-05-05T07:03:49.887Z,17.40
2023-05-05T07:05:53.912Z,17.40
2023-05-05T07:07:56.547Z,17.40
2023-05-05T07:09:58.388Z,17.50
2023-05-05T07:11:59.998Z,17.50
2023-05-05T07:14:01.632Z,17.60
2023-05-05T07:16:03.532Z,17.70
2023-05-05T07:18:05.426Z,17.80
2023-05-05T07:20:08.153Z,18.00
2023-05-05T07:22:09.874Z,18.00
2023-05-05T07:24:11.541Z,18.00
2023-05-05T07:26:13.985Z,18.00
2023-05-05T07:28:15.669Z,18.10
2023-05-05T07:30:19.052Z,18.20
2023-05-05T07:32:21.515Z,18.20
2023-05-05T07:34:23.258Z,18.30
2023-05-05T07:36:27.884Z,18.30
2023-05-05T07:38:29.627Z,18.40
2023-05-05T07:40:31.293Z,18.60
2023-05-05T07:42:32.941Z,18.70
2023-05-05T07:44:34.648Z,18.70
2023-05-05T07:46:36.735Z,18.70
2023-05-05T07:48:41.569Z,18.70
2023-05-05T07:50:43.371Z,18.80
2023-05-05T07:52:49.849Z,18.80
2023-05-05T07:54:53.269Z,18.80
2023-05-05T07:56:54.949Z,18.90
2023-05-05T07:58:56.820Z,19.00
2023-05-05T08:00:58.658Z,18.90
2023-05-05T08:03:00.427Z,18.90
2023-05-05T08:05:02.180Z,18.90
2023-05-05T08:07:03.832Z,18.80
2023-05-05T08:09:05.465Z,18.80
2023-05-05T08:11:07.139Z,18.80
2023-05-05T08:13:08.878Z,18.80
2023-05-05T08:15:10.982Z,18.80
2023-05-05T08:17:12.864Z,18.70
2023-05-05T08:19:27.539Z,18.60
2023-05-05T08:21:31.724Z,18.50
2023-05-05T08:23:33.974Z,18.50
2023-05-05T08:25:36.021Z,18.50
2023-05-05T08:27:38.449Z,18.40
2023-05-05T08:29:40.418Z,18.40
2023-05-05T08:31:44.428Z,18.30
2023-05-05T08:33:46.114Z,18.30
2023-05-05T08:35:48.642Z,18.30
2023-05-05T08:37:51.795Z,18.30
2023-05-05T08:39:59.331Z,18.40
2023-05-05T08:42:01.021Z,18.50
2023-05-05T08:44:02.734Z,18.40
2023-05-05T08:46:05.189Z,18.60
2023-05-05T08:48:06.862Z,18.60
2023-05-05T08:50:09.964Z,18.40
2023-05-05T08:52:13.818Z,18.40
2023-05-05T08:54:19.079Z,18.40
2023-05-05T08:56:24.409Z,18.40
2023-05-05T08:58:28.852Z,18.40
2023-05-05T09:00:30.897Z,18.50
2023-05-05T09:02:32.996Z,18.60
2023-05-05T09:04:36.349Z,18.60
2023-05-05T09:06:39.106Z,18.60
2023-05-05T09:08:42.804Z,18.60
2023-05-05T09:10:44.711Z,18.60
2023-05-05T09:12:49.522Z,18.70
2023-05-05T09:14:51.361Z,18.80
2023-05-05T09:16:53.053Z,18.90
2023-05-05T09:19:02.973Z,19.00
2023-05-05T09:21:22.199Z,19.00
2023-05-05T09:23:23.920Z,19.20
2023-05-05T09:25:25.699Z,19.30
2023-05-05T09:27:40.825Z,19.30
2023-05-05T09:29:48.420Z,19.40
2023-05-05T09:32:05.501Z,19.50
2023-05-05T09:34:16.799Z,19.60
2023-05-05T09:36:18.492Z,19.70
2023-05-05T09:38:22.096Z,19.80
2023-05-05T09:40:35.813Z,19.80
2023-05-05T09:42:37.948Z,20.00
2023-05-05T09:44:40.855Z,20.00
2023-05-05T09:46:52.387Z,20.00
2023-05-05T09:48:54.131Z,20.10
2023-05-05T09:50:56.297Z,20.20
2023-05-05T09:52:59.366Z,20.30
2023-05-05T09:55:01.020Z,20.40
2023-05-05T09:57:03.729Z,20.50
2023-05-05T09:59:09.331Z,20.60
2023-05-05T10:01:21.720Z,20.70
2023-05-05T10:03:23.802Z,20.80
2023-05-05T10:05:25.531Z,20.60
2023-05-05T10:07:27.408Z,20.40
2023-05-05T10:09:29.513Z,20.90
2023-05-05T10:11:34.904Z,20.80
2023-05-05T10:16:03.879Z,20.90
2023-05-05T10:18:08.063Z,21.30
2023-05-05T10:20:10.702Z,20.90
2023-05-05T10:22:15.580Z,21.40
2023-05-05T10:24:21.924Z,21.60
2023-05-05T10:26:26.140Z,21.40
2023-05-05T10:28:37.244Z,21.90
2023-05-05T10:30:43.050Z,22.40
2023-05-05T10:33:07.947Z,22.30
2023-05-05T10:35:16.629Z,22.20
2023-05-05T10:37:19.715Z,22.00
2023-05-05T10:39:22.737Z,21.80
2023-05-05T10:41:24.901Z,21.80
2023-05-05T10:43:27.653Z,21.80
2023-05-05T10:45:29.443Z,21.70
2023-05-05T10:47:32.939Z,21.70
2023-05-05T10:49:39.726Z,21.10
2023-05-05T10:51:57.648Z,21.00
2023-05-05T10:54:19.514Z,21.00
2023-05-05T10:56:32.602Z,21.00
2023-05-05T10:58:46.998Z,21.00
2023-05-05T11:00:56.929Z,21.00
2023-05-05T11:03:17.188Z,21.00
2023-05-05T11:05:22.772Z,21.10
2023-05-05T11:07:27.339Z,21.00
2023-05-05T11:09:30.099Z,20.90
2023-05-05T11:11:51.590Z,20.90
2023-05-05T11:14:13.186Z,20.90
2023-05-05T11:16:40.471Z,20.80
2023-05-05T11:18:45.453Z,20.80
2023-05-05T11:20:53.013Z,20.80
2023-05-05T11:23:04.007Z,20.80
2023-05-05T11:25:26.829Z,20.80
2023-05-05T11:27:48.801Z,20.90
2023-05-05T11:30:17.978Z,20.90
2023-05-05T11:32:26.661Z,21.10
2023-05-05T11:34:28.408Z,21.30
2023-05-05T11:36:40.418Z,21.50
2023-05-05T11:38:50.847Z,21.50
2023-05-05T11:40:56.599Z,21.80
2023-05-05T11:43:07.209Z,22.10
2023-05-05T11:45:24.870Z,22.20
2023-05-05T11:47:28.252Z,22.30
2023-05-05T11:49:32.398Z,22.30
2023-05-05T11:51:34.231Z,22.10
2023-05-05T11:53:36.002Z,21.90
2023-05-05T11:55:37.584Z,22.00
2023-05-05T11:57:39.661Z,22.60
2023-05-05T11:59:49.936Z,23.20
2023-05-05T12:01:51.757Z,23.60
2023-05-05T12:03:56.592Z,24.40
2023-05-05T12:06:00.915Z,24.40
2023-05-05T12:08:03.448Z,24.50
2023-05-05T12:10:06.907Z,24.70
2023-05-05T12:12:08.703Z,25.30
2023-05-05T12:14:11.215Z,25.10
2023-05-05T12:16:14.565Z,24.80
2023-05-05T12:18:20.647Z,24.40
2023-05-05T12:20:29.410Z,24.70
2023-05-05T12:22:31.244Z,24.60
2023-05-05T12:24:38.989Z,24.60
2023-05-05T12:26:46.740Z,23.10
2023-05-05T12:28:48.331Z,22.80
2023-05-05T12:30:59.439Z,22.80
2023-05-05T12:33:05.376Z,22.80
2023-05-05T12:35:07.977Z,22.90
2023-05-05T12:37:09.681Z,22.50
2023-05-05T12:39:12.172Z,22.20
2023-05-05T12:41:17.841Z,22.30
2023-05-05T12:43:23.603Z,21.90
2023-05-05T12:45:25.333Z,21.90
2023-05-05T12:47:33.817Z,22.10
2023-05-05T12:49:49.571Z,22.20
2023-05-05T12:51:53.998Z,22.30
2023-05-05T12:54:06.515Z,22.10
2023-05-05T12:56:27.033Z,22.20
2023-05-05T12:58:31.615Z,22.20
2023-05-05T13:01:10.608Z,22.30
2023-05-05T13:03:44.231Z,22.40
2023-05-05T13:06:36.114Z,22.50
2023-05-05T13:08:55.090Z,22.80
2023-05-05T13:10:58.988Z,23.10
2023-05-05T13:13:10.817Z,23.00
2023-05-05T13:15:30.548Z,22.80
2023-05-05T13:17:36.882Z,22.40
2023-05-05T13:19:46.096Z,22.70
2023-05-05T13:21:47.840Z,22.60
2023-05-05T13:23:49.527Z,22.20
2023-05-05T13:25:51.173Z,22.40
2023-05-05T13:27:52.958Z,22.60
2023-05-05T13:29:54.658Z,22.60
2023-05-05T13:31:56.331Z,22.70
2023-05-05T13:33:58.037Z,22.80
2023-05-05T13:35:59.814Z,22.90
2023-05-05T13:38:01.421Z,22.80
2023-05-05T13:40:03.524Z,22.80
2023-05-05T13:42:05.265Z,23.40
2023-05-05T13:44:06.952Z,24.30
2023-05-05T13:46:19.683Z,25.00
2023-05-05T13:48:22.308Z,25.00
2023-05-05T13:50:23.996Z,23.20
2023-05-05T13:52:25.976Z,24.20
2023-05-05T13:54:28.632Z,24.70
2023-05-05T13:56:30.328Z,25.50
2023-05-05T13:58:38.137Z,25.80
2023-05-05T14:00:40.849Z,25.00
2023-05-05T14:07:16.942Z,24.50
2023-05-05T14:14:16.341Z,24.50
2023-05-05T14:16:17.966Z,23.90
2023-05-05T14:18:19.585Z,23.30
2023-05-05T14:20:21.306Z,23.40
2023-05-05T14:22:23.006Z,23.40
2023-05-05T14:24:24.799Z,23.40
2023-05-05T14:26:27.258Z,23.20
2023-05-05T14:28:28.942Z,22.90
2023-05-05T14:30:30.678Z,23.00
2023-05-05T14:32:32.347Z,23.00
2023-05-05T14:34:34.193Z,22.90
2023-05-05T14:36:36.029Z,22.90
2023-05-05T14:38:37.846Z,22.70
2023-05-05T14:40:39.582Z,22.50
2023-05-05T14:42:41.302Z,22.50
2023-05-05T14:44:42.997Z,22.30
2023-05-05T14:46:46.190Z,22.30
2023-05-05T14:48:48.332Z,22.30
2023-05-05T14:50:50.357Z,22.30
2023-05-05T14:52:52.166Z,22.20
2023-05-05T14:54:53.897Z,22.30
2023-05-05T14:56:55.873Z,22.30
2023-05-05T14:58:57.665Z,22.10
2023-05-05T15:01:00.503Z,21.90
2023-05-05T15:03:02.465Z,22.00
2023-05-05T15:05:04.541Z,22.00
2023-05-05T15:07:06.321Z,21.90
2023-05-05T15:09:08.172Z,21.80
2023-05-05T15:11:09.856Z,21.70
2023-05-05T15:13:11.891Z,21.50
2023-05-05T15:15:13.691Z,21.50
2023-05-05T15:17:15.433Z,21.50
2023-05-05T15:19:17.224Z,21.40
2023-05-05T15:21:18.970Z,21.30
2023-05-05T15:23:21.078Z,21.20
2023-05-05T15:25:22.726Z,21.00
2023-05-05T15:27:24.381Z,21.00
2023-05-05T15:29:26.055Z,21.00
2023-05-05T15:31:27.764Z,20.90
2023-05-05T15:33:30.984Z,20.80
2023-05-05T15:35:32.755Z,20.60
2023-05-05T15:37:34.753Z,20.50
2023-05-05T15:39:36.470Z,20.40
2023-05-05T15:41:38.177Z,20.40
2023-05-05T15:43:39.884Z,20.20
2023-05-05T15:45:41.770Z,20.20
2023-05-05T15:47:43.478Z,20.10
2023-05-05T15:49:45.161Z,20.10
2023-05-05T15:51:48.341Z,20.20
2023-05-05T15:53:50.019Z,20.10
2023-05-05T15:55:51.711Z,20.00
2023-05-05T15:57:53.478Z,19.90
2023-05-05T15:59:55.110Z,19.90
2023-05-05T16:01:56.745Z,19.80
2023-05-05T16:03:59.889Z,19.70
2023-05-05T16:06:01.617Z,19.70
2023-05-05T16:08:09.642Z,19.70
2023-05-05T16:10:11.388Z,19.60
2023-05-05T16:12:13.165Z,19.50
2023-05-05T16:14:14.837Z,19.40
2023-05-05T16:16:16.539Z,19.20
2023-05-05T16:18:18.191Z,19.20
2023-05-05T16:20:19.884Z,19.00
2023-05-05T16:22:21.481Z,18.80
2023-05-05T16:24:23.183Z,18.70
2023-05-05T16:26:24.859Z,18.70
2023-05-05T16:28:26.751Z,18.60
2023-05-05T16:30:29.408Z,18.50
2023-05-05T16:32:31.272Z,18.40
2023-05-05T16:34:33.102Z,18.30
2023-05-05T16:36:34.879Z,18.40
2023-05-05T16:38:36.541Z,18.40
2023-05-05T16:40:38.201Z,18.30
2023-05-05T16:42:39.880Z,18.10
2023-05-05T16:44:41.515Z,18.10
2023-05-05T16:46:43.222Z,18.00
2023-05-05T16:48:45.777Z,17.90
2023-05-05T16:50:47.361Z,17.90
2023-05-05T16:52:49.069Z,17.80
2023-05-05T16:54:55.476Z,17.90
2023-05-05T16:56:58.137Z,17.90
2023-05-05T16:58:59.781Z,17.90
2023-05-05T17:01:03.395Z,17.80
2023-05-05T17:03:05.110Z,17.80
2023-05-05T17:05:07.319Z,17.80
2023-05-05T17:07:09.190Z,17.80
2023-05-05T17:09:10.876Z,17.70
2023-05-05T17:11:12.528Z,17.60
2023-05-05T17:13:14.544Z,17.60
2023-05-05T17:15:16.609Z,17.40
2023-05-05T17:17:18.217Z,17.40
2023-05-05T17:19:19.806Z,17.40
2023-05-05T17:21:21.451Z,17.40
2023-05-05T17:23:23.268Z,17.50
2023-05-05T17:25:27.951Z,17.60
2023-05-05T17:27:29.663Z,17.70
2023-05-05T17:29:31.382Z,17.90
2023-05-05T17:31:33.118Z,17.90
2023-05-05T17:33:34.846Z,17.90
2023-05-05T17:35:37.278Z,17.80
2023-05-05T17:37:38.970Z,17.70
2023-05-05T17:39:40.598Z,17.70
2023-05-05T17:41:42.406Z,17.70
2023-05-05T17:43:44.030Z,17.70
2023-05-05T17:45:46.749Z,17.80
2023-05-05T17:47:48.551Z,17.70
2023-05-05T17:49:51.591Z,17.70
2023-05-05T17:51:53.258Z,17.70
2023-05-05T17:53:54.878Z,17.50
2023-05-05T17:55:56.526Z,17.30
2023-05-05T17:57:59.018Z,17.40
2023-05-05T18:00:02.411Z,17.40
2023-05-05T18:02:04.131Z,17.30
2023-05-05T18:04:05.869Z,17.20
2023-05-05T18:06:07.717Z,17.10
2023-05-05T18:08:09.505Z,17.00
2023-05-05T18:10:11.731Z,17.00
2023-05-05T18:12:13.348Z,17.00
2023-05-05T18:14:15.005Z,17.10
2023-05-05T18:16:16.658Z,17.10
2023-05-05T18:18:18.349Z,17.10
2023-05-05T18:20:20.232Z,17.10
2023-05-05T18:22:21.982Z,17.00
2023-05-05T18:24:23.716Z,16.90
2023-05-05T18:26:25.477Z,16.80
2023-05-05T18:28:27.126Z,16.70
2023-05-05T18:30:28.824Z,16.60
2023-05-05T18:32:30.786Z,16.50
2023-05-05T18:34:32.843Z,16.60
2023-05-05T18:36:34.478Z,16.60
2023-05-05T18:38:36.230Z,16.50
2023-05-05T18:40:37.952Z,16.50
2023-05-05T18:42:39.653Z,16.50
2023-05-05T18:44:41.644Z,16.50
2023-05-05T18:46:43.352Z,16.40
2023-05-05T18:48:45.236Z,16.20
2023-05-05T18:50:47.685Z,16.20
2023-05-05T18:52:49.352Z,16.10
2023-05-05T18:54:51.208Z,16.10
2023-05-05T18:56:53.100Z,16.00
2023-05-05T18:58:54.895Z,15.90
2023-05-05T19:00:57.197Z,15.80
2023-05-05T19:02:58.941Z,15.80
2023-05-05T19:05:00.845Z,15.70
2023-05-05T19:07:02.759Z,15.80
2023-05-05T19:09:04.390Z,15.60
2023-05-05T19:11:06.237Z,15.60
2023-05-05T19:13:09.451Z,15.60
2023-05-05T19:15:11.607Z,15.50
2023-05-05T19:17:13.477Z,15.60
2023-05-05T19:19:15.166Z,15.60
2023-05-05T19:21:16.819Z,15.50
2023-05-05T19:23:18.415Z,15.50
2023-05-05T19:25:20.124Z,15.30
2023-05-05T19:27:21.875Z,15.40
2023-05-05T19:29:23.584Z,15.50
2023-05-05T19:31:27.819Z,15.60
2023-05-05T19:33:29.577Z,15.50
2023-05-05T19:35:31.557Z,15.50
2023-05-05T19:37:33.434Z,15.40
2023-05-05T19:39:35.374Z,15.30
2023-05-05T19:41:37.511Z,15.30
2023-05-05T19:43:39.527Z,15.30
2023-05-05T19:45:41.199Z,15.40
2023-05-05T19:47:43.106Z,15.40
2023-05-05T19:49:44.735Z,15.40
2023-05-05T19:51:49.653Z,15.40
2023-05-05T19:53:51.425Z,15.40
2023-05-05T19:55:53.062Z,15.40
2023-05-05T19:57:54.720Z,15.40
2023-05-05T19:59:56.458Z,15.40
2023-05-05T20:01:58.153Z,15.40
2023-05-05T20:04:00.022Z,15.40
2023-05-05T20:06:01.684Z,15.40
2023-05-05T20:08:06.433Z,15.40
2023-05-05T20:10:08.700Z,15.40
2023-05-05T20:12:12.101Z,15.40
2023-05-05T20:14:13.792Z,15.30
2023-05-05T20:16:15.762Z,15.30
2023-05-05T20:18:17.505Z,15.40
2023-05-05T20:20:20.977Z,15.40
2023-05-05T20:22:22.661Z,15.50
2023-05-05T20:24:24.568Z,15.50
2023-05-05T20:26:26.489Z,15.60
2023-05-05T20:28:28.201Z,15.50
2023-05-05T20:30:29.804Z,15.60
2023-05-05T20:32:31.637Z,15.60
2023-05-05T20:34:33.406Z,15.60
2023-05-05T20:36:35.115Z,15.70
2023-05-05T20:38:36.784Z,15.60
2023-05-05T20:40:38.572Z,15.60
2023-05-05T20:42:40.272Z,15.60
2023-05-05T20:44:42.160Z,15.70
2023-05-05T20:46:44.336Z,15.70
2023-05-05T20:48:46.219Z,15.60
2023-05-05T20:50:48.073Z,15.50
2023-05-05T20:52:49.689Z,15.50
2023-05-05T20:54:51.412Z,15.40
2023-05-05T20:56:58.008Z,15.40
2023-05-05T20:58:59.635Z,15.40
2023-05-05T21:01:01.328Z,15.40
2023-05-05T21:03:04.281Z,15.50
2023-05-05T21:05:06.259Z,15.60
2023-05-05T21:07:10.969Z,15.60
2023-05-05T21:09:12.829Z,15.60
2023-05-05T21:11:14.506Z,15.50
2023-05-05T21:13:16.439Z,15.60
2023-05-05T21:15:18.272Z,15.50
2023-05-05T21:17:19.916Z,15.40
2023-05-05T21:19:21.875Z,15.40
2023-05-05T21:21:24.640Z,15.40
2023-05-05T21:23:26.329Z,15.40
2023-05-05T21:25:28.065Z,15.40
2023-05-05T21:27:30.368Z,15.40
2023-05-05T21:29:37.747Z,15.30
2023-05-05T21:31:39.548Z,15.30
2023-05-05T21:33:41.323Z,15.30
2023-05-05T21:35:42.962Z,15.40
2023-05-05T21:37:44.649Z,15.40
2023-05-05T21:39:46.357Z,15.30
2023-05-05T21:41:47.999Z,15.30
2023-05-05T21:43:49.633Z,15.30
2023-05-05T21:45:58.366Z,15.30
2023-05-05T21:48:00.049Z,15.30
2023-05-05T21:50:02.011Z,15.20
2023-05-05T21:52:03.631Z,15.20
2023-05-05T21:54:05.358Z,15.10
2023-05-05T21:56:08.367Z,15.10
2023-05-05T21:58:09.987Z,15.20
2023-05-05T22:00:16.686Z,15.20
2023-05-05T22:02:18.478Z,15.20
2023-05-05T22:04:20.490Z,15.20
2023-05-05T22:06:22.221Z,15.20
2023-05-05T22:08:23.890Z,15.20
2023-05-05T22:10:26.503Z,15.30
2023-05-05T22:12:28.276Z,15.30
2023-05-05T22:14:29.928Z,15.20
2023-05-05T22:16:31.789Z,15.30
2023-05-05T22:18:33.634Z,15.40
2023-05-05T22:20:35.385Z,15.40
2023-05-05T22:22:37.062Z,15.30
2023-05-05T22:24:38.812Z,15.30
2023-05-05T22:26:43.151Z,15.30
2023-05-05T22:28:45.112Z,15.30
2023-05-05T22:30:46.860Z,15.30
2023-05-05T22:32:48.525Z,15.30
2023-05-05T22:34:50.246Z,15.20
2023-05-05T22:36:51.847Z,15.20
2023-05-05T22:38:53.479Z,15.30
2023-05-05T22:40:55.114Z,15.30
2023-05-05T22:42:56.887Z,15.30
2023-05-05T22:44:58.563Z,15.30
2023-05-05T22:47:00.311Z,15.20
2023-05-05T22:49:02.035Z,15.20
2023-05-05T22:51:03.728Z,15.20
2023-05-05T22:53:05.584Z,15.20
2023-05-05T22:55:07.946Z,15.20
2023-05-05T22:57:10.054Z,15.20
2023-05-05T22:59:11.685Z,15.30
2023-05-05T23:01:13.662Z,15.20
2023-05-05T23:03:15.342Z,15.20
2023-05-05T23:05:17.063Z,15.20
2023-05-05T23:07:18.841Z,15.10
2023-05-05T23:09:20.860Z,15.10
2023-05-05T23:11:22.510Z,15.10
2023-05-05T23:13:24.162Z,15.20
2023-05-05T23:15:25.724Z,15.20
2023-05-05T23:17:27.427Z,15.20
2023-05-05T23:19:32.334Z,15.20
2023-05-05T23:21:38.933Z,15.10
2023-05-05T23:23:48.468Z,15.10
2023-05-05T23:25:51.236Z,15.20
2023-05-05T23:27:53.042Z,15.20
2023-05-05T23:29:54.660Z,15.30
2023-05-05T23:31:57.054Z,15.30
2023-05-05T23:33:58.709Z,15.30
2023-05-05T23:36:00.393Z,15.20
2023-05-05T23:38:02.112Z,15.20
2023-05-05T23:40:03.954Z,15.10
2023-05-05T23:42:05.637Z,15.10
2023-05-05T23:44:07.402Z,15.20
2023-05-05T23:46:09.075Z,15.20
2023-05-05T23:48:11.824Z,15.20
2023-05-05T23:50:13.600Z,15.20
2023-05-05T23:52:15.340Z,15.20
2023-05-05T23:54:17.265Z,15.20
2023-05-05T23:56:19.058Z,15.10
2023-05-05T23:58:20.896Z,15.10
